createdAt,value
2018-04-09T00:02:15.959Z,12.30
2018-04-09T00:04:43.432Z,5.90
2018-04-09T00:07:10.895Z,15.00
2018-04-09T00:09:38.428Z,9.47
2018-04-09T00:12:06.188Z,24.87
2018-04-09T00:14:33.652Z,7.30
2018-04-09T00:17:01.108Z,8.30
2018-04-09T00:19:28.867Z,23.23
2018-04-09T00:21:56.486Z,15.40
2018-04-09T00:24:24.041Z,8.57
2018-04-09T00:26:51.551Z,19.27
2018-04-09T00:29:19.314Z,9.47
2018-04-09T00:31:46.796Z,11.83
2018-04-09T00:34:14.265Z,7.67
2018-04-09T00:36:41.723Z,7.20
2018-04-09T00:39:09.356Z,8.80
2018-04-09T00:41:36.819Z,10.60
2018-04-09T00:44:05.152Z,13.97
2018-04-09T00:46:32.752Z,8.30
2018-04-09T00:49:00.216Z,16.97
2018-04-09T00:51:27.792Z,17.07
2018-04-09T00:54:00.731Z,14.33
2018-04-09T00:56:28.344Z,23.03
2018-04-09T00:58:55.876Z,16.03
2018-04-09T01:01:23.335Z,9.80
2018-04-09T01:03:50.816Z,12.67
2018-04-09T01:06:18.280Z,20.67
2018-04-09T01:08:45.735Z,6.40
2018-04-09T01:13:46.387Z,14.53
2018-04-09T01:16:13.870Z,12.67
2018-04-09T01:18:41.384Z,15.47
2018-04-09T01:21:08.843Z,27.93
2018-04-09T01:23:36.522Z,10.30
2018-04-09T01:26:03.984Z,14.23
2018-04-09T01:28:31.441Z,8.30
2018-04-09T01:30:58.907Z,10.50
2018-04-09T01:33:26.367Z,19.50
2018-04-09T01:35:53.840Z,20.33
2018-04-09T01:38:21.304Z,10.30
2018-04-09T01:40:48.779Z,16.60
2018-04-09T01:43:16.254Z,21.00
2018-04-09T01:45:43.713Z,10.40
2018-04-09T01:48:11.274Z,16.73
2018-04-09T01:50:38.865Z,11.53
2018-04-09T01:53:07.096Z,12.10
2018-04-09T01:55:34.792Z,12.57
2018-04-09T01:58:02.561Z,14.70
2018-04-09T02:00:30.324Z,15.50
2018-04-09T02:02:58.238Z,15.43
2018-04-09T02:05:25.847Z,10.07
2018-04-09T02:07:53.395Z,15.60
2018-04-09T02:10:20.865Z,13.27
2018-04-09T02:12:48.331Z,11.67
2018-04-09T02:15:15.804Z,13.93
2018-04-09T02:17:44.023Z,20.90
2018-04-09T02:20:11.500Z,12.50
2018-04-09T02:22:38.976Z,12.00
2018-04-09T02:25:06.740Z,11.00
2018-04-09T02:27:34.205Z,15.03
2018-04-09T02:30:01.678Z,18.63
2018-04-09T02:32:29.259Z,28.53
2018-04-09T02:34:57.038Z,15.27
2018-04-09T02:37:24.517Z,10.33
2018-04-09T02:39:51.985Z,22.83
2018-04-09T02:42:19.472Z,15.67
2018-04-09T02:44:46.978Z,18.47
2018-04-09T02:47:14.465Z,19.27
2018-04-09T02:49:42.865Z,12.53
2018-04-09T02:52:10.332Z,27.97
2018-04-09T02:54:37.797Z,14.50
2018-04-09T02:57:05.268Z,30.10
2018-04-09T02:59:33.004Z,16.60
2018-04-09T03:02:00.461Z,13.17
2018-04-09T03:04:27.937Z,14.90
2018-04-09T03:06:55.592Z,19.83
2018-04-09T03:09:23.174Z,13.90
2018-04-09T03:11:50.750Z,12.40
2018-04-09T03:14:18.364Z,11.57
2018-04-09T03:16:46.129Z,11.60
2018-04-09T03:19:13.892Z,16.70
2018-04-09T03:21:41.359Z,11.10
2018-04-09T03:24:09.047Z,16.23
2018-04-09T03:26:36.508Z,11.10
2018-04-09T03:29:03.979Z,15.03
2018-04-09T03:31:31.492Z,13.00
2018-04-09T03:33:58.966Z,48.73
2018-04-09T03:36:26.709Z,14.70
2018-04-09T03:38:54.186Z,22.63
2018-04-09T03:41:21.661Z,12.87
2018-04-09T03:43:49.394Z,17.43
2018-04-09T03:46:17.164Z,14.03
2018-04-09T03:48:44.930Z,7.90
2018-04-09T03:51:12.380Z,16.43
2018-04-09T03:53:40.066Z,13.70
2018-04-09T03:56:07.593Z,19.13
2018-04-09T03:58:35.056Z,12.30
2018-04-09T04:01:02.517Z,19.27
2018-04-09T04:03:30.012Z,10.47
2018-04-09T04:05:57.468Z,11.00
2018-04-09T04:08:25.111Z,12.20
2018-04-09T04:10:52.579Z,15.00
2018-04-09T04:13:20.060Z,9.80
2018-04-09T04:15:59.371Z,16.13
2018-04-09T04:18:36.433Z,11.37
2018-04-09T04:21:16.590Z,15.10
2018-04-09T04:23:44.352Z,13.93
2018-04-09T04:26:12.116Z,30.00
2018-04-09T04:28:39.585Z,15.07
2018-04-09T04:31:07.060Z,25.60
2018-04-09T04:33:34.745Z,16.43
2018-04-09T04:36:02.259Z,24.27
2018-04-09T04:38:30.028Z,19.40
2018-04-09T04:40:57.787Z,13.27
2018-04-09T04:43:25.251Z,11.63
2018-04-09T04:45:53.090Z,16.50
2018-04-09T04:48:20.775Z,14.87
2018-04-09T04:50:48.247Z,13.50
2018-04-09T04:53:15.875Z,18.40
2018-04-09T04:55:43.372Z,19.00
2018-04-09T04:58:10.840Z,15.20
2018-04-09T05:00:39.075Z,13.87
2018-04-09T05:03:06.751Z,15.03
2018-04-09T05:05:34.219Z,18.63
2018-04-09T05:08:01.677Z,20.20
2018-04-09T05:10:29.234Z,15.73
2018-04-09T05:12:56.697Z,11.17
2018-04-09T05:15:24.171Z,20.33
2018-04-09T05:17:53.193Z,22.30
2018-04-09T05:20:20.805Z,12.80
2018-04-09T05:22:48.284Z,26.03
2018-04-09T05:25:15.824Z,14.47
2018-04-09T05:27:43.295Z,14.20
2018-04-09T05:30:10.793Z,12.57
2018-04-09T05:32:38.298Z,16.20
2018-04-09T05:35:05.748Z,28.23
2018-04-09T05:37:33.224Z,17.10
2018-04-09T05:40:00.781Z,14.70
2018-04-09T05:42:28.536Z,23.50
2018-04-09T05:44:56.358Z,17.97
2018-04-09T05:47:23.982Z,31.97
2018-04-09T05:49:51.484Z,20.80
2018-04-09T05:52:18.988Z,17.80
2018-04-09T05:54:46.451Z,34.00
2018-04-09T05:57:13.926Z,16.83
2018-04-09T05:59:41.663Z,18.03
2018-04-09T06:02:09.128Z,21.37
2018-04-09T06:04:36.888Z,23.53
2018-04-09T06:07:04.577Z,26.00
2018-04-09T06:09:32.042Z,27.23
2018-04-09T06:11:59.577Z,21.73
2018-04-09T06:14:27.345Z,19.33
2018-04-09T06:16:54.978Z,23.10
2018-04-09T06:19:22.515Z,20.63
2018-04-09T06:21:49.976Z,36.03
2018-04-09T06:24:17.475Z,18.40
2018-04-09T06:26:44.959Z,22.97
2018-04-09T06:29:12.703Z,25.80
2018-04-09T06:31:40.175Z,42.43
2018-04-09T06:34:07.851Z,21.93
2018-04-09T06:36:35.370Z,21.47
2018-04-09T06:39:02.880Z,20.57
2018-04-09T06:41:30.390Z,25.30
2018-04-09T06:43:57.863Z,26.00
2018-04-09T06:46:25.319Z,20.83
2018-04-09T06:48:52.792Z,29.93
2018-04-09T06:51:21.040Z,30.87
2018-04-09T06:53:48.503Z,25.87
2018-04-09T06:56:15.973Z,30.73
2018-04-09T06:58:43.647Z,35.33
2018-04-09T07:01:11.304Z,30.97
2018-04-09T07:03:38.764Z,53.43
2018-04-09T07:06:07.011Z,30.53
2018-04-09T07:08:34.487Z,35.80
2018-04-09T07:11:02.251Z,28.60
2018-04-09T07:13:29.737Z,32.37
2018-04-09T07:15:57.203Z,35.33
2018-04-09T07:18:24.673Z,34.97
2018-04-09T07:20:52.390Z,31.10
2018-04-09T07:23:20.156Z,33.57
2018-04-09T07:25:47.925Z,33.90
2018-04-09T07:28:15.389Z,47.97
2018-04-09T07:30:43.060Z,53.60
2018-04-09T07:33:10.604Z,50.97
2018-04-09T07:35:38.201Z,60.30
2018-04-09T07:38:05.827Z,55.67
2018-04-09T07:40:34.227Z,56.03
2018-04-09T07:43:01.696Z,64.93
2018-04-09T07:45:29.225Z,74.80
2018-04-09T07:47:56.723Z,76.97
2018-04-09T07:50:24.196Z,62.53
2018-04-09T07:52:51.669Z,81.27
2018-04-09T07:55:19.168Z,65.70
2018-04-09T07:57:46.829Z,65.70
2018-04-09T08:00:14.295Z,76.00
2018-04-09T08:02:42.865Z,65.80
2018-04-09T08:05:11.862Z,57.30
2018-04-09T08:07:40.852Z,56.83
2018-04-09T08:10:09.837Z,75.10
2018-04-09T08:12:37.316Z,67.40
2018-04-09T08:15:04.770Z,57.33
2018-04-09T08:17:33.111Z,56.80
2018-04-09T08:20:00.574Z,59.80
2018-04-09T08:22:28.060Z,59.53
2018-04-09T08:24:57.032Z,54.73
2018-04-09T08:27:24.508Z,61.80
2018-04-09T08:29:53.656Z,67.70
2018-04-09T08:32:21.418Z,53.83
2018-04-09T08:34:48.944Z,48.40
2018-04-09T08:37:17.408Z,59.53
2018-04-09T08:39:46.372Z,67.87
2018-04-09T08:42:13.843Z,71.47
2018-04-09T08:44:41.310Z,60.67
2018-04-09T08:47:08.775Z,73.93
2018-04-09T08:49:37.763Z,74.57
2018-04-09T08:52:05.548Z,66.97
2018-04-09T08:54:33.083Z,61.43
2018-04-09T08:57:00.763Z,66.93
2018-04-09T08:59:29.738Z,74.90
2018-04-09T09:01:57.207Z,61.30
2018-04-09T09:04:24.681Z,72.53
2018-04-09T09:06:52.440Z,70.77
2018-04-09T09:09:19.913Z,79.37
2018-04-09T09:11:47.667Z,77.70
2018-04-09T09:14:15.146Z,67.40
2018-04-09T09:16:42.888Z,70.47
2018-04-09T09:19:11.852Z,67.90
2018-04-09T09:21:39.315Z,63.70
2018-04-09T09:24:06.775Z,66.33
2018-04-09T09:26:34.239Z,74.60
2018-04-09T09:29:01.721Z,71.10
2018-04-09T09:31:29.183Z,71.70
2018-04-09T09:33:56.939Z,64.87
2018-04-09T09:36:24.423Z,66.10
2018-04-09T09:38:52.069Z,65.67
2018-04-09T09:41:19.617Z,78.37
2018-04-09T09:43:47.084Z,55.63
2018-04-09T09:46:14.751Z,69.00
2018-04-09T09:48:42.227Z,56.27
2018-04-09T09:51:09.688Z,59.47
2018-04-09T09:53:37.207Z,59.20
2018-04-09T09:56:04.668Z,53.47
2018-04-09T09:58:32.147Z,69.17
2018-04-09T10:01:01.524Z,58.30
2018-04-09T10:03:28.988Z,58.00
2018-04-09T10:05:56.475Z,60.80
2018-04-09T10:08:24.108Z,66.40
2018-04-09T10:10:51.879Z,55.57
2018-04-09T10:13:19.639Z,44.83
2018-04-09T10:15:47.316Z,66.30
2018-04-09T10:18:15.941Z,50.13
2018-04-09T10:20:43.546Z,51.20
2018-04-09T10:23:11.247Z,61.47
2018-04-09T10:25:38.712Z,68.20
2018-04-09T10:28:06.227Z,53.60
2018-04-09T10:30:33.855Z,49.77
2018-04-09T10:33:01.452Z,57.20
2018-04-09T10:35:29.224Z,59.03
2018-04-09T10:37:56.900Z,60.13
2018-04-09T10:40:24.448Z,45.77
2018-04-09T10:42:52.119Z,58.77
2018-04-09T10:45:19.823Z,53.53
2018-04-09T10:47:48.117Z,50.10
2018-04-09T10:50:15.584Z,62.20
2018-04-09T10:52:43.192Z,57.23
2018-04-09T10:55:10.728Z,65.13
2018-04-09T10:57:38.193Z,73.97
2018-04-09T11:00:05.675Z,59.10
2018-04-09T11:02:33.408Z,49.60
2018-04-09T11:05:01.167Z,58.93
2018-04-09T11:07:28.639Z,73.17
2018-04-09T11:09:56.281Z,52.70
2018-04-09T11:12:23.859Z,58.20
2018-04-09T11:14:51.319Z,50.40
2018-04-09T11:17:19.079Z,60.07
2018-04-09T11:19:46.999Z,54.20
2018-04-09T11:22:14.532Z,54.03
2018-04-09T11:24:42.020Z,65.60
2018-04-09T11:27:09.483Z,57.50
2018-04-09T11:29:36.953Z,52.80
2018-04-09T11:32:04.596Z,52.10
2018-04-09T11:34:32.072Z,41.93
2018-04-09T11:36:59.584Z,49.03
2018-04-09T11:39:27.044Z,63.00
2018-04-09T11:41:54.586Z,50.10
2018-04-09T11:44:22.349Z,50.27
2018-04-09T11:46:49.818Z,58.50
2018-04-09T11:49:17.284Z,55.23
2018-04-09T11:51:45.630Z,48.20
2018-04-09T11:54:13.115Z,53.07
2018-04-09T11:56:40.575Z,68.67
2018-04-09T11:59:08.322Z,59.40
2018-04-09T12:01:35.801Z,63.57
2018-04-09T12:04:03.457Z,62.40
2018-04-09T12:06:30.921Z,50.27
2018-04-09T12:08:58.389Z,60.33
2018-04-09T12:11:25.862Z,47.30
2018-04-09T12:13:53.381Z,51.37
2018-04-09T12:16:21.062Z,60.77
2018-04-09T12:18:48.623Z,81.27
2018-04-09T12:21:16.085Z,61.80
2018-04-09T12:23:43.547Z,71.17
2018-04-09T12:26:11.065Z,92.50
2018-04-09T12:28:38.671Z,50.63
2018-04-09T12:31:06.509Z,60.17
2018-04-09T12:33:34.274Z,56.03
2018-04-09T12:36:01.954Z,55.53
2018-04-09T12:38:29.426Z,53.10
2018-04-09T12:40:56.984Z,56.90
2018-04-09T12:43:24.491Z,68.40
2018-04-09T12:45:51.962Z,59.70
2018-04-09T12:48:19.434Z,58.90
2018-04-09T12:50:47.100Z,72.77
2018-04-09T12:53:14.574Z,70.43
2018-04-09T12:55:42.037Z,56.60
2018-04-09T12:58:09.685Z,68.10
2018-04-09T13:00:37.158Z,61.97
2018-04-09T13:03:04.694Z,58.23
2018-04-09T13:05:32.159Z,50.37
2018-04-09T13:07:59.617Z,61.90
2018-04-09T13:10:27.219Z,55.67
2018-04-09T13:12:54.686Z,66.63
2018-04-09T13:15:22.281Z,56.83
2018-04-09T13:17:49.982Z,61.40
2018-04-09T13:20:17.441Z,66.37
2018-04-09T13:22:44.923Z,57.27
2018-04-09T13:25:12.380Z,58.97
2018-04-09T13:27:39.842Z,59.43
2018-04-09T13:30:07.308Z,60.93
2018-04-09T13:32:34.761Z,68.17
2018-04-09T13:35:02.232Z,62.57
2018-04-09T13:37:29.747Z,56.97
2018-04-09T13:39:57.282Z,58.87
2018-04-09T13:42:24.783Z,54.30
2018-04-09T13:44:52.317Z,60.70
2018-04-09T13:47:19.778Z,58.20
2018-04-09T13:49:47.245Z,62.23
2018-04-09T13:52:14.701Z,60.90
2018-04-09T13:54:42.230Z,70.80
2018-04-09T13:57:09.688Z,66.93
2018-04-09T13:59:37.250Z,73.80
2018-04-09T14:02:04.714Z,61.03
2018-04-09T14:04:32.370Z,62.83
2018-04-09T14:07:00.138Z,54.30
2018-04-09T14:09:27.814Z,67.63
2018-04-09T14:11:55.357Z,77.47
2018-04-09T14:14:22.818Z,57.20
2018-04-09T14:16:50.581Z,71.83
2018-04-09T14:19:18.348Z,77.43
2018-04-09T14:21:46.108Z,80.17
2018-04-09T14:24:13.582Z,54.33
2018-04-09T14:26:41.330Z,56.80
2018-04-09T14:29:08.794Z,63.53
2018-04-09T14:31:36.562Z,75.03
2018-04-09T14:34:04.322Z,73.00
2018-04-09T14:36:31.833Z,63.07
2018-04-09T14:38:59.465Z,70.70
2018-04-09T14:41:27.160Z,68.53
2018-04-09T14:43:54.742Z,64.83
2018-04-09T14:46:22.209Z,64.00
2018-04-09T14:48:49.675Z,66.53
2018-04-09T14:51:17.450Z,61.87
2018-04-09T14:53:44.921Z,63.50
2018-04-09T14:56:12.674Z,85.20
2018-04-09T14:58:40.133Z,64.50
2018-04-09T15:01:07.822Z,64.00
2018-04-09T15:03:35.299Z,61.70
2018-04-09T15:06:02.765Z,74.20
2018-04-09T15:08:30.231Z,70.50
2018-04-09T15:10:57.702Z,57.50
2018-04-09T15:13:25.162Z,72.80
2018-04-09T15:15:52.954Z,76.07
2018-04-09T15:18:20.742Z,64.50
2018-04-09T15:20:48.481Z,80.43
2018-04-09T15:23:15.949Z,62.50
2018-04-09T15:25:43.410Z,62.63
2018-04-09T15:28:11.163Z,69.47
2018-04-09T15:30:38.626Z,66.33
2018-04-09T15:33:06.090Z,58.50
2018-04-09T15:35:33.732Z,71.40
2018-04-09T15:38:01.200Z,58.90
2018-04-09T15:40:28.670Z,58.27
2018-04-09T15:42:56.222Z,70.97
2018-04-09T15:45:24.905Z,69.90
2018-04-09T15:47:53.873Z,64.43
2018-04-09T15:50:21.663Z,69.33
2018-04-09T15:52:49.482Z,69.00
2018-04-09T15:55:17.148Z,70.90
2018-04-09T15:57:44.605Z,57.37
2018-04-09T16:00:12.082Z,68.50
2018-04-09T16:02:39.553Z,76.57
2018-04-09T16:05:07.038Z,61.90
2018-04-09T16:07:40.210Z,61.87
2018-04-09T16:10:07.731Z,62.53
2018-04-09T16:12:35.236Z,64.27
2018-04-09T16:15:02.706Z,72.60
2018-04-09T16:17:30.178Z,57.67
2018-04-09T16:19:57.921Z,59.27
2018-04-09T16:22:25.602Z,52.43
2018-04-09T16:24:53.069Z,68.20
2018-04-09T16:27:20.563Z,59.83
2018-04-09T16:29:48.025Z,56.13
2018-04-09T16:32:15.492Z,55.70
2018-04-09T16:34:43.132Z,72.60
2018-04-09T16:37:10.657Z,60.40
2018-04-09T16:39:38.196Z,50.63
2018-04-09T16:42:07.202Z,56.20
2018-04-09T16:44:34.818Z,56.43
2018-04-09T16:47:02.418Z,56.90
2018-04-09T16:49:29.877Z,77.37
2018-04-09T16:51:57.347Z,67.23
2018-04-09T16:54:24.814Z,48.43
2018-04-09T16:56:52.479Z,94.17
2018-04-09T16:59:19.933Z,50.83
2018-04-09T17:01:47.423Z,49.20
2018-04-09T17:04:14.931Z,75.73
2018-04-09T17:06:42.710Z,55.63
2018-04-09T17:09:10.488Z,56.43
2018-04-09T17:11:37.984Z,59.63
2018-04-09T17:14:05.606Z,59.53
2018-04-09T17:16:33.065Z,64.93
2018-04-09T17:19:00.544Z,64.77
2018-04-09T17:21:28.006Z,59.37
2018-04-09T17:23:55.471Z,50.00
2018-04-09T17:26:22.973Z,70.90
2018-04-09T17:28:50.589Z,67.87
2018-04-09T17:31:18.202Z,58.90
2018-04-09T17:33:45.961Z,71.53
2018-04-09T17:36:13.642Z,59.77
2018-04-09T17:38:41.185Z,56.33
2018-04-09T17:41:08.665Z,76.70
2018-04-09T17:43:36.416Z,54.67
2018-04-09T17:46:03.875Z,65.10
2018-04-09T17:48:31.345Z,63.20
2018-04-09T17:50:58.809Z,68.63
2018-04-09T17:53:26.547Z,63.73
2018-04-09T17:55:55.551Z,46.60
2018-04-09T17:58:23.017Z,65.30
2018-04-09T18:00:50.474Z,51.60
2018-04-09T18:03:17.933Z,59.63
2018-04-09T18:05:45.685Z,65.00
2018-04-09T18:08:13.142Z,63.13
2018-04-09T18:10:40.613Z,65.23
2018-04-09T18:13:08.082Z,58.23
2018-04-09T18:15:35.808Z,52.63
2018-04-09T18:18:03.278Z,76.17
2018-04-09T18:20:32.269Z,51.53
2018-04-09T18:23:01.241Z,67.20
2018-04-09T18:25:28.705Z,78.00
2018-04-09T18:27:56.210Z,80.13
2018-04-09T18:30:23.647Z,56.90
2018-04-09T18:32:51.117Z,57.90
2018-04-09T18:35:18.862Z,64.40
2018-04-09T18:37:47.865Z,68.50
2018-04-09T18:40:15.630Z,55.50
2018-04-09T18:42:43.105Z,54.17
2018-04-09T18:45:10.749Z,55.40
2018-04-09T18:47:38.977Z,53.27
2018-04-09T18:50:06.781Z,50.30
2018-04-09T18:52:34.245Z,57.50
2018-04-09T18:55:01.830Z,51.00
2018-04-09T18:57:29.366Z,66.30
2018-04-09T18:59:58.362Z,60.90
2018-04-09T19:02:27.332Z,70.53
2018-04-09T19:04:54.802Z,54.87
2018-04-09T19:07:22.265Z,64.63
2018-04-09T19:09:49.740Z,80.47
2018-04-09T19:12:17.201Z,56.27
2018-04-09T19:14:44.666Z,62.33
2018-04-09T19:17:12.433Z,79.73
2018-04-09T19:19:39.909Z,103.30
2018-04-09T19:22:07.371Z,76.70
2018-04-09T19:24:34.854Z,67.90
2018-04-09T19:27:02.313Z,68.90
2018-04-09T19:29:29.796Z,74.63
2018-04-09T19:31:57.261Z,66.37
2018-04-09T19:34:24.853Z,61.67
2018-04-09T19:36:57.925Z,55.73
2018-04-09T19:39:31.005Z,59.73
2018-04-09T19:41:58.672Z,75.23
2018-04-09T19:44:27.650Z,54.57
2018-04-09T19:46:55.107Z,64.57
2018-04-09T19:49:22.585Z,62.57
2018-04-09T19:51:51.566Z,55.53
2018-04-09T19:54:20.558Z,63.07
2018-04-09T19:56:49.525Z,59.37
2018-04-09T19:59:17.054Z,57.10
2018-04-09T20:01:44.469Z,66.70
2018-04-09T20:04:12.739Z,62.60
2018-04-09T20:06:40.222Z,50.10
2018-04-09T20:09:07.923Z,58.43
2018-04-09T20:11:35.513Z,74.93
2018-04-09T20:14:02.990Z,62.33
2018-04-09T20:16:31.954Z,60.90
2018-04-09T20:18:59.449Z,62.80
2018-04-09T20:21:26.905Z,56.90
2018-04-09T20:23:55.882Z,55.97
2018-04-09T20:26:23.362Z,60.60
2018-04-09T20:28:52.376Z,48.90
2018-04-09T20:31:19.833Z,56.90
2018-04-09T20:33:47.323Z,60.33
2018-04-09T20:36:15.031Z,49.30
2018-04-09T20:38:44.006Z,56.77
2018-04-09T20:41:11.482Z,53.67
2018-04-09T20:43:40.450Z,46.73
2018-04-09T20:46:07.910Z,54.17
2018-04-09T20:48:35.386Z,50.60
2018-04-09T20:51:02.854Z,46.00
2018-04-09T20:53:31.825Z,50.10
2018-04-09T20:55:59.302Z,53.03
2018-04-09T20:58:28.270Z,63.47
2018-04-09T21:00:55.737Z,53.87
2018-04-09T21:03:23.205Z,42.77
2018-04-09T21:05:50.678Z,53.37
2018-04-09T21:08:19.648Z,50.13
2018-04-09T21:10:47.129Z,72.33
2018-04-09T21:13:15.502Z,40.17
2018-04-09T21:15:44.474Z,51.23
2018-04-09T21:18:11.937Z,51.63
2018-04-09T21:20:39.409Z,62.03
2018-04-09T21:23:07.086Z,53.37
2018-04-09T21:25:34.582Z,54.20
2018-04-09T21:28:02.055Z,44.97
2018-04-09T21:30:29.529Z,46.67
2018-04-09T21:32:57.009Z,57.63
2018-04-09T21:35:25.977Z,58.77
2018-04-09T21:37:53.445Z,55.80
2018-04-09T21:40:20.906Z,52.90
2018-04-09T21:42:48.378Z,53.00
2018-04-09T21:45:16.609Z,54.10
2018-04-09T21:47:44.133Z,48.27
2018-04-09T21:50:11.589Z,44.27
2018-04-09T21:52:39.818Z,50.90
2018-04-09T21:55:07.421Z,51.83
2018-04-09T21:57:34.896Z,40.90
2018-04-09T22:00:02.361Z,60.03
2018-04-09T22:02:29.823Z,66.40
2018-04-09T22:04:57.310Z,50.77
2018-04-09T22:07:24.774Z,49.03
2018-04-09T22:09:52.233Z,45.37
2018-04-09T22:12:19.830Z,41.17
2018-04-09T22:14:48.089Z,55.47
2018-04-09T22:17:17.089Z,58.53
2018-04-09T22:19:45.411Z,50.43
2018-04-09T22:22:12.886Z,58.73
2018-04-09T22:24:40.346Z,42.07
2018-04-09T22:27:07.809Z,44.50
2018-04-09T22:29:35.302Z,45.77
2018-04-09T22:32:04.277Z,49.00
2018-04-09T22:34:31.776Z,63.90
2018-04-09T22:36:59.997Z,57.07
2018-04-09T22:39:27.501Z,41.13
2018-04-09T22:41:54.979Z,41.03
2018-04-09T22:44:22.510Z,43.53
2018-04-09T22:46:49.966Z,49.13
2018-04-09T22:49:18.948Z,72.07
2018-04-09T22:51:46.633Z,46.30
2018-04-09T22:54:14.104Z,46.23
2018-04-09T22:56:41.569Z,51.27
2018-04-09T22:59:09.041Z,40.80
2018-04-09T23:01:36.513Z,47.97
2018-04-09T23:04:04.018Z,42.40
2018-04-09T23:06:31.485Z,42.20
2018-04-09T23:08:58.942Z,46.00
2018-04-09T23:11:26.424Z,43.77
2018-04-09T23:13:54.154Z,47.83
2018-04-09T23:16:23.121Z,39.07
2018-04-09T23:18:50.602Z,56.90
2018-04-09T23:21:19.570Z,44.07
2018-04-09T23:23:47.034Z,46.57
2018-04-09T23:26:14.820Z,55.20
2018-04-09T23:28:42.581Z,46.17
2018-04-09T23:31:10.906Z,46.97
2018-04-09T23:33:38.421Z,40.00
2018-04-09T23:36:06.185Z,51.63
2018-04-09T23:38:33.953Z,35.33
2018-04-09T23:41:01.425Z,43.70
2018-04-09T23:43:28.890Z,41.97
2018-04-09T23:45:56.356Z,47.73
2018-04-09T23:48:24.090Z,44.40
2018-04-09T23:50:51.553Z,43.47
2018-04-09T23:53:19.234Z,55.40
2018-04-09T23:55:46.774Z,31.40
2018-04-09T23:58:14.470Z,27.53
